Time;durP1;ratioP1;P1;durP2;ratioP2;P2;SDS_P1;SDS_P2;PMS_P1;PMS_P2;Temp;Humidity;BMP_temperature;BMP_pressure;BME280_temperature;BME280_humidity;BME280_pressure;Samples;Min_cycle;Max_cycle;Signal;HPM_P1;HPM_P2
2022/11/11 00:01:39;;;;;;;9.40;4.15;;;;;;;;;;5052061;28;20020;-76
2022/11/11 00:04:04;;;;;;;9.13;4.07;;;;;;;;;;5053457;28;20584;-77
2022/11/11 00:06:30;;;;;;;10.20;3.80;;;;;;;;;;5053272;28;20060;-76
2022/11/11 00:08:55;;;;;;;10.25;3.97;;;;;;;;;;5051999;28;20026;-76
2022/11/11 00:11:20;;;;;;;11.20;3.67;;;;;;;;;;5053620;28;20040;-77
2022/11/11 00:13:45;;;;;;;9.90;3.70;;;;;;;;;;5053526;28;20179;-77
2022/11/11 00:16:17;;;;;;;6.78;3.60;;;;;;;;;;5053249;28;20070;-77
2022/11/11 00:26:47;;;;;;;11.77;3.75;;;;;;;;;;5053693;28;20032;-77
2022/11/11 00:29:13;;;;;;;8.70;3.47;;;;;;;;;;5053364;28;20029;-77
2022/11/11 00:32:21;;;;;;;6.68;3.40;;;;;;;;;;5034566;28;20136;-77
2022/11/11 00:34:24;;;;;;;8.70;3.17;;;;;;;;;;5052923;28;20032;-77
2022/11/11 00:36:49;;;;;;;16.35;3.95;;;;;;;;;;5053521;28;20021;-77
2022/11/11 00:39:14;;;;;;;9.00;3.80;;;;;;;;;;5052897;28;20100;-77
2022/11/11 00:41:39;;;;;;;9.27;3.47;;;;;;;;;;5052935;28;20025;-77
2022/11/11 00:44:05;;;;;;;7.28;3.00;;;;;;;;;;5053066;28;20056;-77
2022/11/11 00:51:58;;;;;;;7.28;3.42;;;;;;;;;;5053168;28;20043;-78
2022/11/11 00:54:23;;;;;;;10.63;3.20;;;;;;;;;;5053183;28;20021;-76
2022/11/11 00:56:48;;;;;;;13.30;3.35;;;;;;;;;;5035205;28;20473;-77
2022/11/11 00:59:14;;;;;;;5.55;3.15;;;;;;;;;;5053479;28;20025;-76
2022/11/11 01:01:39;;;;;;;9.85;3.22;;;;;;;;;;5052779;28;20082;-76
2022/11/11 01:04:04;;;;;;;13.30;2.90;;;;;;;;;;5053287;28;20029;-76
2022/11/11 01:06:30;;;;;;;7.95;2.95;;;;;;;;;;5053041;28;20049;-76
2022/11/11 01:08:55;;;;;;;4.68;2.72;;;;;;;;;;5052814;28;20079;-76
2022/11/11 01:11:23;;;;;;;11.43;2.97;;;;;;;;;;5052596;28;20079;-76
2022/11/11 01:13:49;;;;;;;5.80;2.90;;;;;;;;;;5052952;28;20137;-77
2022/11/11 01:16:17;;;;;;;5.43;2.78;;;;;;;;;;5052818;28;20112;-77
2022/11/11 01:18:42;;;;;;;7.85;2.88;;;;;;;;;;5052833;28;20029;-77
2022/11/11 01:21:14;;;;;;;8.82;3.00;;;;;;;;;;5052733;28;20078;-77
2022/11/11 01:23:40;;;;;;;7.05;2.65;;;;;;;;;;5052593;28;20036;-77
2022/11/11 01:26:15;;;;;;;5.70;2.90;;;;;;;;;;5052564;28;20071;-77
2022/11/11 01:28:40;;;;;;;6.40;2.80;;;;;;;;;;5034723;28;20433;-77
2022/11/11 01:31:08;;;;;;;7.82;3.20;;;;;;;;;;5052443;28;20025;-77
2022/11/11 01:33:33;;;;;;;8.52;2.90;;;;;;;;;;5052911;28;20029;-77
2022/11/11 01:36:20;;;;;;;6.38;2.67;;;;;;;;;;5052623;28;20032;-77
2022/11/11 01:38:55;;;;;;;5.80;2.65;;;;;;;;;;5052579;28;20028;-77
2022/11/11 01:41:33;;;;;;;8.50;2.83;;;;;;;;;;5052330;28;20126;-77
2022/11/11 01:44:13;;;;;;;6.47;2.80;;;;;;;;;;5054721;28;20025;-77
2022/11/11 01:46:44;;;;;;;9.73;3.03;;;;;;;;;;5038363;28;20445;-77
2022/11/11 01:49:28;;;;;;;5.93;2.58;;;;;;;;;;5055918;28;20485;-77
2022/11/11 01:52:15;;;;;;;8.77;2.72;;;;;;;;;;5037954;28;20068;-77
2022/11/11 01:54:55;;;;;;;7.88;2.80;;;;;;;;;;5055854;28;20021;-76
2022/11/11 01:57:31;;;;;;;6.40;2.97;;;;;;;;;;5055761;28;20390;-77
2022/11/11 02:00:02;;;;;;;6.78;3.00;;;;;;;;;;5037831;28;20031;-77
2022/11/11 02:02:40;;;;;;;8.23;2.85;;;;;;;;;;5037702;28;20520;-77
2022/11/11 02:07:54;;;;;;;4.90;2.50;;;;;;;;;;5056402;28;20028;-77
2022/11/11 02:10:22;;;;;;;5.53;2.90;;;;;;;;;;5055766;28;20032;-77
2022/11/11 02:15:31;;;;;;;7.10;3.00;;;;;;;;;;5056047;28;20226;-77
2022/11/11 02:17:56;;;;;;;5.18;3.00;;;;;;;;;;5055556;28;20490;-77
2022/11/11 02:20:25;;;;;;;7.13;2.90;;;;;;;;;;5055895;28;20390;-77
2022/11/11 02:22:56;;;;;;;6.43;2.88;;;;;;;;;;5055386;28;20028;-77
2022/11/11 02:25:26;;;;;;;5.75;2.70;;;;;;;;;;5055722;28;20024;-76
2022/11/11 02:27:53;;;;;;;11.85;3.40;;;;;;;;;;5037363;28;20059;-77
2022/11/11 02:30:19;;;;;;;7.03;2.65;;;;;;;;;;5055321;28;20117;-77
2022/11/11 02:32:48;;;;;;;11.57;3.22;;;;;;;;;;5055174;28;20040;-77
2022/11/11 02:35:17;;;;;;;7.85;2.83;;;;;;;;;;5055029;28;20033;-78
2022/11/11 02:37:45;;;;;;;7.25;3.25;;;;;;;;;;5055550;28;20440;-77
2022/11/11 02:40:22;;;;;;;10.55;3.13;;;;;;;;;;5055565;28;20025;-77
2022/11/11 02:42:47;;;;;;;7.25;3.40;;;;;;;;;;5055999;28;20029;-77
2022/11/11 02:45:12;;;;;;;8.02;3.47;;;;;;;;;;5055192;28;20087;-77
2022/11/11 02:47:38;;;;;;;6.20;3.45;;;;;;;;;;5055133;28;20397;-78
2022/11/11 02:50:04;;;;;;;5.80;3.25;;;;;;;;;;5055255;28;20025;-76
2022/11/11 02:52:29;;;;;;;6.82;3.28;;;;;;;;;;5037302;28;20082;-77
2022/11/11 02:54:54;;;;;;;6.28;3.42;;;;;;;;;;5053850;28;20059;-77
2022/11/11 02:57:20;;;;;;;7.68;3.60;;;;;;;;;;5054018;28;20064;-77
2022/11/11 02:59:45;;;;;;;10.50;3.75;;;;;;;;;;5055058;28;20033;-78
2022/11/11 03:02:11;;;;;;;13.48;3.83;;;;;;;;;;5053431;28;20028;-77
2022/11/11 03:04:37;;;;;;;8.70;3.38;;;;;;;;;;5054769;28;20497;-77
2022/11/11 03:07:03;;;;;;;7.47;3.33;;;;;;;;;;5055154;28;20070;-76
2022/11/11 03:09:28;;;;;;;7.25;3.33;;;;;;;;;;5037082;28;20067;-77
2022/11/11 03:11:53;;;;;;;9.80;3.70;;;;;;;;;;5036950;28;20028;-77
2022/11/11 03:14:19;;;;;;;6.75;3.30;;;;;;;;;;5054821;28;20116;-77
2022/11/11 03:19:28;;;;;;;6.05;3.38;;;;;;;;;;5055081;28;20031;-76
2022/11/11 03:21:54;;;;;;;8.68;3.38;;;;;;;;;;5054365;28;20025;-77
2022/11/11 03:24:20;;;;;;;12.95;4.00;;;;;;;;;;5054643;28;20048;-77
2022/11/11 03:26:46;;;;;;;8.18;3.65;;;;;;;;;;5036194;28;20402;-77
2022/11/11 03:29:11;;;;;;;9.82;3.58;;;;;;;;;;5054269;28;20086;-76
2022/11/11 03:31:37;;;;;;;4.47;3.22;;;;;;;;;;5054185;28;20024;-77
2022/11/11 03:34:17;;;;;;;8.50;3.90;;;;;;;;;;5054393;28;20032;-78
2022/11/11 03:39:27;;;;;;;6.50;3.55;;;;;;;;;;5054618;28;20040;-78
2022/11/11 03:41:52;;;;;;;7.47;3.67;;;;;;;;;;5053933;28;20025;-77
2022/11/11 03:44:18;;;;;;;8.15;3.70;;;;;;;;;;5053031;28;20021;-77
2022/11/11 03:46:43;;;;;;;7.53;3.17;;;;;;;;;;5035969;28;20390;-77
2022/11/11 03:49:09;;;;;;;8.52;3.58;;;;;;;;;;5053951;28;20031;-77
2022/11/11 03:51:34;;;;;;;9.48;3.65;;;;;;;;;;5053623;28;20025;-76
2022/11/11 03:53:59;;;;;;;11.90;3.75;;;;;;;;;;5054016;28;20035;-77
2022/11/11 03:56:24;;;;;;;7.97;4.10;;;;;;;;;;5053666;28;20029;-77
2022/11/11 03:58:50;;;;;;;10.60;3.45;;;;;;;;;;5053822;28;20063;-76
2022/11/11 04:10:21;;;;;;;10.55;4.15;;;;;;;;;;5053851;28;20466;-77
2022/11/11 04:12:28;;;;;;;9.30;3.78;;;;;;;;;;5053724;28;20524;-77
2022/11/11 04:17:38;;;;;;;8.32;3.55;;;;;;;;;;5053465;28;20027;-77
2022/11/11 04:22:47;;;;;;;8.80;3.83;;;;;;;;;;5053575;28;20082;-77
2022/11/11 04:30:41;;;;;;;12.88;3.80;;;;;;;;;;5053484;28;20059;-77
2022/11/11 04:33:06;;;;;;;8.80;3.95;;;;;;;;;;5053402;28;20499;-77
2022/11/11 04:35:31;;;;;;;8.10;3.78;;;;;;;;;;5053172;28;20029;-77
2022/11/11 04:41:02;;;;;;;14.48;3.95;;;;;;;;;;5053194;28;20024;-78
2022/11/11 04:46:25;;;;;;;11.45;4.65;;;;;;;;;;5031893;28;20383;-77
2022/11/11 04:48:50;;;;;;;12.00;4.68;;;;;;;;;;5053081;28;20079;-77
2022/11/11 04:51:15;;;;;;;12.25;4.93;;;;;;;;;;5053145;28;20477;-77
2022/11/11 04:53:41;;;;;;;10.20;4.15;;;;;;;;;;5053105;28;20107;-76
2022/11/11 04:59:14;;;;;;;10.32;3.95;;;;;;;;;;5053627;28;20036;-76
2022/11/11 05:04:21;;;;;;;8.88;4.30;;;;;;;;;;5041826;28;20417;-76
2022/11/11 05:09:30;;;;;;;11.55;4.22;;;;;;;;;;5053245;28;20163;-76
2022/11/11 05:11:56;;;;;;;6.50;3.33;;;;;;;;;;5052905;28;20520;-76
2022/11/11 05:22:38;;;;;;;7.88;4.15;;;;;;;;;;5056981;28;20032;-77
2022/11/11 05:27:48;;;;;;;8.48;4.78;;;;;;;;;;5057164;28;20084;-76
2022/11/11 05:30:15;;;;;;;10.70;4.47;;;;;;;;;;5056378;28;20029;-76
2022/11/11 05:32:40;;;;;;;10.85;4.68;;;;;;;;;;5056331;28;20087;-76
2022/11/11 05:35:07;;;;;;;10.88;4.10;;;;;;;;;;5056599;28;20025;-76
2022/11/11 05:37:32;;;;;;;9.73;4.55;;;;;;;;;;5056081;28;20032;-77
2022/11/11 05:39:57;;;;;;;9.52;4.60;;;;;;;;;;5056396;28;20029;-77
2022/11/11 05:42:22;;;;;;;12.55;5.05;;;;;;;;;;5056226;28;20106;-77
2022/11/11 05:44:48;;;;;;;10.77;4.60;;;;;;;;;;5056127;28;20043;-76
2022/11/11 05:47:13;;;;;;;10.15;4.50;;;;;;;;;;5057291;28;20078;-76
2022/11/11 05:49:38;;;;;;;8.43;4.57;;;;;;;;;;5038210;28;20021;-76
2022/11/11 05:52:05;;;;;;;15.10;4.65;;;;;;;;;;5056177;28;20029;-77
2022/11/11 05:54:31;;;;;;;9.65;4.55;;;;;;;;;;5038355;28;20029;-76
2022/11/11 05:56:56;;;;;;;12.48;5.05;;;;;;;;;;5056115;28;20096;-76
2022/11/11 05:59:21;;;;;;;11.82;5.03;;;;;;;;;;5055860;28;20125;-77
2022/11/11 06:01:47;;;;;;;11.23;4.60;;;;;;;;;;5055856;28;20092;-76
2022/11/11 06:04:12;;;;;;;13.57;5.32;;;;;;;;;;5056164;28;20082;-77
2022/11/11 06:06:37;;;;;;;9.88;4.85;;;;;;;;;;5055976;28;20042;-77
2022/11/11 06:09:03;;;;;;;14.90;4.75;;;;;;;;;;5037850;28;20028;-76
2022/11/11 06:11:29;;;;;;;11.40;5.28;;;;;;;;;;5055939;28;20033;-77
2022/11/11 06:13:55;;;;;;;8.23;4.80;;;;;;;;;;5037903;28;20029;-78
2022/11/11 06:16:20;;;;;;;11.10;5.45;;;;;;;;;;5055764;28;20074;-77
2022/11/11 06:18:46;;;;;;;11.95;4.88;;;;;;;;;;5055984;28;20045;-77
2022/11/11 06:21:12;;;;;;;10.35;5.03;;;;;;;;;;5056102;28;20505;-77
2022/11/11 06:23:37;;;;;;;8.90;4.35;;;;;;;;;;5055510;28;20033;-77
2022/11/11 06:26:12;;;;;;;13.45;5.22;;;;;;;;;;5055847;28;20080;-77
2022/11/11 06:28:44;;;;;;;16.65;5.00;;;;;;;;;;5055250;28;20031;-77
2022/11/11 06:31:21;;;;;;;10.93;5.10;;;;;;;;;;5055137;28;20154;-77
2022/11/11 06:33:47;;;;;;;14.32;4.82;;;;;;;;;;5055493;28;20488;-77
2022/11/11 06:36:14;;;;;;;12.95;5.25;;;;;;;;;;5053732;28;20102;-77
2022/11/11 06:38:40;;;;;;;12.05;5.28;;;;;;;;;;5037369;28;20024;-76
2022/11/11 06:41:05;;;;;;;9.50;5.45;;;;;;;;;;5055330;28;20078;-76
2022/11/11 06:43:31;;;;;;;11.40;5.85;;;;;;;;;;5055207;28;20444;-76
2022/11/11 06:45:56;;;;;;;12.15;6.07;;;;;;;;;;5055287;28;20068;-76
2022/11/11 06:48:23;;;;;;;14.90;5.57;;;;;;;;;;5055161;28;20052;-76
2022/11/11 06:50:48;;;;;;;10.40;5.13;;;;;;;;;;5055178;28;20132;-77
2022/11/11 06:53:17;;;;;;;9.38;5.50;;;;;;;;;;5055209;28;20493;-76
2022/11/11 06:55:42;;;;;;;16.13;6.25;;;;;;;;;;5055209;28;20029;-77
2022/11/11 06:58:15;;;;;;;15.98;6.32;;;;;;;;;;5055316;28;20031;-76
2022/11/11 07:00:41;;;;;;;14.85;5.85;;;;;;;;;;5054918;28;20025;-77
2022/11/11 07:03:08;;;;;;;11.95;5.38;;;;;;;;;;5054925;28;20021;-76
2022/11/11 07:05:34;;;;;;;12.35;5.32;;;;;;;;;;5054658;28;20401;-78
2022/11/11 07:08:04;;;;;;;10.20;5.30;;;;;;;;;;5036746;28;20116;-77
2022/11/11 07:10:30;;;;;;;7.97;5.28;;;;;;;;;;5054328;28;20478;-77
2022/11/11 07:12:55;;;;;;;14.50;5.63;;;;;;;;;;5036657;28;20139;-77
2022/11/11 07:15:21;;;;;;;11.25;5.65;;;;;;;;;;5054311;28;20025;-77
2022/11/11 07:17:46;;;;;;;14.02;6.03;;;;;;;;;;5054450;28;20021;-77
2022/11/11 07:20:11;;;;;;;12.55;5.68;;;;;;;;;;5054483;28;20108;-76
2022/11/11 07:22:37;;;;;;;10.82;5.65;;;;;;;;;;5036254;28;20025;-77
2022/11/11 07:25:03;;;;;;;11.25;6.03;;;;;;;;;;5054076;28;20524;-76
2022/11/11 07:27:28;;;;;;;10.00;5.40;;;;;;;;;;5036159;28;20013;-76
2022/11/11 07:29:54;;;;;;;12.45;6.00;;;;;;;;;;5054081;28;20029;-77
2022/11/11 07:32:19;;;;;;;13.77;5.53;;;;;;;;;;5052725;28;20025;-77
2022/11/11 07:34:44;;;;;;;12.52;5.68;;;;;;;;;;5054293;28;20025;-77
2022/11/11 07:37:09;;;;;;;10.57;6.15;;;;;;;;;;5053759;28;20358;-77
2022/11/11 07:39:35;;;;;;;14.93;7.30;;;;;;;;;;5052421;28;20021;-76
2022/11/11 07:42:00;;;;;;;13.43;6.40;;;;;;;;;;5053480;28;20036;-77
2022/11/11 07:44:26;;;;;;;13.38;5.80;;;;;;;;;;5054057;28;20021;-78
2022/11/11 07:46:51;;;;;;;23.80;6.38;;;;;;;;;;5054443;28;20016;-77
2022/11/11 07:49:16;;;;;;;13.27;5.88;;;;;;;;;;5035801;28;20021;-77
2022/11/11 07:51:42;;;;;;;19.75;6.90;;;;;;;;;;5053808;28;20028;-76
2022/11/11 07:54:07;;;;;;;16.52;6.75;;;;;;;;;;5035794;28;20055;-77
2022/11/11 07:56:32;;;;;;;11.60;6.03;;;;;;;;;;5052450;28;20432;-77
2022/11/11 07:58:57;;;;;;;12.45;5.60;;;;;;;;;;5036119;28;20113;-77
2022/11/11 08:01:23;;;;;;;11.13;5.10;;;;;;;;;;5053445;28;20401;-75
2022/11/11 08:03:48;;;;;;;16.20;4.95;;;;;;;;;;5053494;28;20132;-77
2022/11/11 08:06:22;;;;;;;10.55;5.60;;;;;;;;;;5053748;28;20116;-77
2022/11/11 08:08:48;;;;;;;10.02;4.72;;;;;;;;;;5035661;28;20111;-77
2022/11/11 08:11:15;;;;;;;12.35;5.80;;;;;;;;;;5053364;28;20422;-77
2022/11/11 08:13:41;;;;;;;12.20;5.72;;;;;;;;;;5053437;28;20025;-77
2022/11/11 08:16:07;;;;;;;8.30;4.97;;;;;;;;;;5053199;28;20021;-77
2022/11/11 08:18:36;;;;;;;10.82;5.38;;;;;;;;;;5053576;28;20035;-77
2022/11/11 08:21:02;;;;;;;9.77;5.43;;;;;;;;;;5053407;28;20028;-77
2022/11/11 08:23:31;;;;;;;10.57;4.85;;;;;;;;;;5054530;28;20366;-76
2022/11/11 08:26:03;;;;;;;13.68;5.15;;;;;;;;;;5053129;28;20096;-76
2022/11/11 08:28:31;;;;;;;10.32;5.28;;;;;;;;;;5035369;28;20021;-76
2022/11/11 08:31:00;;;;;;;11.38;4.93;;;;;;;;;;5053153;28;20029;-76
2022/11/11 08:33:27;;;;;;;11.35;4.90;;;;;;;;;;5053429;28;20087;-77
2022/11/11 08:38:55;;;;;;;11.35;6.43;;;;;;;;;;5060018;28;20044;-78
2022/11/11 08:41:22;;;;;;;12.38;5.68;;;;;;;;;;5060137;28;20025;-78
2022/11/11 08:43:51;;;;;;;15.45;5.55;;;;;;;;;;5060036;28;20025;-78
2022/11/11 08:46:16;;;;;;;14.35;5.05;;;;;;;;;;5062168;28;20031;-78
2022/11/11 08:48:41;;;;;;;9.38;4.95;;;;;;;;;;5054619;28;20113;-78
2022/11/11 08:51:06;;;;;;;7.88;4.75;;;;;;;;;;5039682;28;20482;-78
2022/11/11 08:53:32;;;;;;;12.48;5.22;;;;;;;;;;5063404;28;20036;-78
2022/11/11 08:56:00;;;;;;;10.80;4.97;;;;;;;;;;5046988;28;20068;-78
2022/11/11 08:58:25;;;;;;;7.63;4.95;;;;;;;;;;5046346;28;20025;-79
2022/11/11 09:00:51;;;;;;;10.77;5.18;;;;;;;;;;5062636;28;20020;-79
2022/11/11 09:03:16;;;;;;;9.73;4.97;;;;;;;;;;5045733;28;20020;-79
2022/11/11 09:05:41;;;;;;;12.05;4.65;;;;;;;;;;5063091;28;20023;-78
2022/11/11 09:08:07;;;;;;;10.65;4.65;;;;;;;;;;5044809;28;20071;-77
2022/11/11 09:10:36;;;;;;;10.82;5.03;;;;;;;;;;5061069;28;20451;-79
2022/11/11 09:13:02;;;;;;;9.80;5.93;;;;;;;;;;5062815;28;20036;-78
2022/11/11 09:15:27;;;;;;;10.77;5.30;;;;;;;;;;5063213;28;20059;-78
2022/11/11 09:17:53;;;;;;;9.27;4.95;;;;;;;;;;5063636;28;20036;-80
2022/11/11 09:20:19;;;;;;;9.25;5.28;;;;;;;;;;5045765;28;20021;-79
2022/11/11 09:22:45;;;;;;;14.70;5.25;;;;;;;;;;5044909;28;20021;-78
2022/11/11 09:25:11;;;;;;;11.48;5.18;;;;;;;;;;5062118;28;20057;-79
2022/11/11 09:27:37;;;;;;;9.45;4.85;;;;;;;;;;5046192;28;20063;-79
2022/11/11 09:30:03;;;;;;;11.63;4.78;;;;;;;;;;5061440;28;20115;-79
2022/11/11 09:32:28;;;;;;;11.98;4.82;;;;;;;;;;5045083;28;20047;-79
2022/11/11 09:34:54;;;;;;;6.50;4.50;;;;;;;;;;5063295;28;20025;-79
2022/11/11 09:37:19;;;;;;;9.60;4.88;;;;;;;;;;5063685;28;20466;-79
2022/11/11 09:39:45;;;;;;;7.88;4.78;;;;;;;;;;5062340;28;20032;-80
2022/11/11 09:42:22;;;;;;;9.30;4.70;;;;;;;;;;5062639;28;20029;-80
2022/11/11 09:45:11;;;;;;;9.65;4.60;;;;;;;;;;5047711;28;20036;-79
2022/11/11 09:48:03;;;;;;;9.13;4.25;;;;;;;;;;5062507;28;20083;-79
2022/11/11 09:50:32;;;;;;;8.45;4.28;;;;;;;;;;5062462;28;20393;-78
2022/11/11 09:53:21;;;;;;;12.80;4.63;;;;;;;;;;5063922;28;20032;-79
2022/11/11 09:56:08;;;;;;;8.77;4.60;;;;;;;;;;5062925;28;20509;-80
2022/11/11 09:58:47;;;;;;;10.63;4.50;;;;;;;;;;5061432;28;20021;-79
2022/11/11 10:01:20;;;;;;;11.70;4.57;;;;;;;;;;5062743;28;20095;-79
2022/11/11 10:03:53;;;;;;;13.57;4.57;;;;;;;;;;5062400;28;20054;-79
2022/11/11 10:06:27;;;;;;;10.15;4.80;;;;;;;;;;5064547;28;20101;-79
2022/11/11 10:09:04;;;;;;;15.20;4.90;;;;;;;;;;5066510;28;20048;-79
2022/11/11 10:11:51;;;;;;;13.15;4.80;;;;;;;;;;5062197;28;20021;-79
2022/11/11 10:14:16;;;;;;;7.90;4.22;;;;;;;;;;5061088;28;20429;-79
2022/11/11 10:16:53;;;;;;;11.15;5.00;;;;;;;;;;5062869;28;20040;-79
2022/11/11 10:19:51;;;;;;;8.43;4.25;;;;;;;;;;5065452;28;20028;-79
2022/11/11 10:22:24;;;;;;;8.85;4.68;;;;;;;;;;5060039;28;20025;-78
2022/11/11 10:25:10;;;;;;;8.90;3.95;;;;;;;;;;5063535;28;20048;-78
2022/11/11 10:27:42;;;;;;;11.60;4.35;;;;;;;;;;5064973;28;20100;-79
2022/11/11 10:30:23;;;;;;;8.90;3.97;;;;;;;;;;5063494;28;20048;-79
2022/11/11 10:33:01;;;;;;;6.32;4.28;;;;;;;;;;5065039;28;20494;-79
2022/11/11 10:35:29;;;;;;;10.95;4.97;;;;;;;;;;5066248;28;20050;-80
2022/11/11 10:38:09;;;;;;;9.55;4.68;;;;;;;;;;5064041;28;20025;-79
2022/11/11 10:40:48;;;;;;;10.38;5.05;;;;;;;;;;5063387;28;20079;-79
2022/11/11 10:43:22;;;;;;;8.95;4.50;;;;;;;;;;5062366;28;20032;-79
2022/11/11 10:45:58;;;;;;;8.82;4.68;;;;;;;;;;5062251;28;20032;-79
2022/11/11 10:48:35;;;;;;;6.50;4.22;;;;;;;;;;5060150;28;20036;-79
2022/11/11 10:51:01;;;;;;;7.80;4.57;;;;;;;;;;5042256;28;20033;-79
2022/11/11 10:53:47;;;;;;;8.45;4.80;;;;;;;;;;5058784;28;20504;-78
2022/11/11 10:56:27;;;;;;;10.57;4.90;;;;;;;;;;5059531;28;20028;-78
2022/11/11 10:59:20;;;;;;;7.68;4.53;;;;;;;;;;5059054;28;20029;-79
2022/11/11 11:01:56;;;;;;;10.38;4.45;;;;;;;;;;5060818;28;20056;-79
2022/11/11 11:04:28;;;;;;;9.18;4.78;;;;;;;;;;5060074;28;20064;-78
2022/11/11 11:06:56;;;;;;;7.95;4.20;;;;;;;;;;5060158;28;20029;-78
2022/11/11 11:09:48;;;;;;;20.80;8.90;;;;;;;;;;5060084;28;20028;-79
2022/11/11 11:12:21;;;;;;;8.30;4.18;;;;;;;;;;5062920;28;20382;-79
2022/11/11 11:14:50;;;;;;;9.20;4.80;;;;;;;;;;5060089;28;20055;-78
2022/11/11 11:17:29;;;;;;;12.82;4.60;;;;;;;;;;5060723;28;20497;-80
2022/11/11 11:20:13;;;;;;;11.55;5.10;;;;;;;;;;5046715;28;20028;-79
2022/11/11 11:22:49;;;;;;;;;;;;;;;;;;5044547;28;20029;-80
2022/11/11 11:25:16;;;;;;;9.32;3.90;;;;;;;;;;5057614;28;19975;-78
2022/11/11 11:27:41;;;;;;;9.52;4.28;;;;;;;;;;5060637;28;20021;-78
2022/11/11 11:30:21;;;;;;;10.52;4.43;;;;;;;;;;5050096;28;20047;-79
2022/11/11 11:33:01;;;;;;;9.50;4.40;;;;;;;;;;5045613;28;20057;-80
2022/11/11 11:35:38;;;;;;;10.55;4.43;;;;;;;;;;5051303;28;20051;-78
2022/11/11 11:38:05;;;;;;;12.00;4.93;;;;;;;;;;5064109;28;20486;-78
2022/11/11 11:40:46;;;;;;;9.77;4.55;;;;;;;;;;5046382;28;20036;-79
2022/11/11 11:43:38;;;;;;;10.00;4.72;;;;;;;;;;5058662;28;20025;-79
2022/11/11 11:46:31;;;;;;;9.13;4.60;;;;;;;;;;5053806;28;20071;-78
2022/11/11 11:49:05;;;;;;;10.50;4.65;;;;;;;;;;5062729;28;20027;-79
2022/11/11 11:51:35;;;;;;;11.00;4.93;;;;;;;;;;5063007;28;20033;-79
2022/11/11 11:54:25;;;;;;;7.53;4.28;;;;;;;;;;5061685;28;20429;-79
2022/11/11 11:56:55;;;;;;;8.43;4.40;;;;;;;;;;5061983;28;20031;-78
2022/11/11 11:59:39;;;;;;;13.27;4.63;;;;;;;;;;5065416;28;20044;-79
2022/11/11 12:02:26;;;;;;;9.40;4.40;;;;;;;;;;5063080;28;20035;-79
2022/11/11 12:05:01;;;;;;;8.45;3.70;;;;;;;;;;5061626;28;20025;-78
2022/11/11 12:07:38;;;;;;;7.70;3.90;;;;;;;;;;5061478;28;20029;-78
2022/11/11 12:10:41;;;;;;;11.45;4.20;;;;;;;;;;5061393;28;20052;-78
2022/11/11 12:13:28;;;;;;;6.25;3.80;;;;;;;;;;5062725;28;20044;-79
2022/11/11 12:16:08;;;;;;;10.18;4.15;;;;;;;;;;5059650;28;20025;-78
2022/11/11 12:18:46;;;;;;;8.88;4.13;;;;;;;;;;5056936;28;20174;-79
2022/11/11 12:21:15;;;;;;;6.70;3.75;;;;;;;;;;5054057;28;20049;-79
2022/11/11 12:23:58;;;;;;;9.18;4.20;;;;;;;;;;5041683;28;20030;-78
2022/11/11 12:26:26;;;;;;;8.25;4.07;;;;;;;;;;5039108;28;20037;-78
2022/11/11 12:29:07;;;;;;;7.72;3.88;;;;;;;;;;5041970;28;20043;-79
2022/11/11 12:31:35;;;;;;;9.57;3.75;;;;;;;;;;5039588;28;20033;-77
2022/11/11 12:34:15;;;;;;;8.45;3.67;;;;;;;;;;5038247;28;20022;-77
2022/11/11 12:37:08;;;;;;;10.68;4.28;;;;;;;;;;5044403;28;20033;-79
2022/11/11 12:40:08;;;;;;;6.68;3.88;;;;;;;;;;5044515;28;20029;-78
2022/11/11 12:42:55;;;;;;;8.68;3.75;;;;;;;;;;5033471;28;20052;-77
2022/11/11 12:45:25;;;;;;;7.28;4.25;;;;;;;;;;5040412;28;20484;-79
2022/11/11 12:48:02;;;;;;;14.15;4.22;;;;;;;;;;5041461;28;20120;-79
2022/11/11 12:51:03;;;;;;;10.73;4.35;;;;;;;;;;5039952;28;20065;-79
2022/11/11 12:53:54;;;;;;;7.30;4.25;;;;;;;;;;5044860;28;20048;-78
2022/11/11 12:56:33;;;;;;;10.07;4.60;;;;;;;;;;5039092;28;20056;-79
2022/11/11 12:59:10;;;;;;;10.95;4.45;;;;;;;;;;5043555;28;20063;-79
2022/11/11 13:01:51;;;;;;;10.13;4.00;;;;;;;;;;5043551;28;20034;-78
2022/11/11 13:04:43;;;;;;;11.02;4.32;;;;;;;;;;5040406;28;20079;-78
2022/11/11 13:07:34;;;;;;;9.38;4.38;;;;;;;;;;5040427;28;20044;-78
2022/11/11 13:10:20;;;;;;;9.52;4.38;;;;;;;;;;5042790;28;20033;-78
2022/11/11 13:13:12;;;;;;;7.63;4.28;;;;;;;;;;5036488;28;20498;-78
2022/11/11 13:15:38;;;;;;;12.52;4.25;;;;;;;;;;5043863;28;20395;-78
2022/11/11 13:18:13;;;;;;;10.77;4.30;;;;;;;;;;5043283;28;20064;-78
2022/11/11 13:20:53;;;;;;;8.68;4.30;;;;;;;;;;5045375;28;20032;-78
2022/11/11 13:23:18;;;;;;;8.98;4.20;;;;;;;;;;5043738;28;20548;-78
2022/11/11 13:25:47;;;;;;;10.75;4.40;;;;;;;;;;5036704;28;20033;-80
2022/11/11 13:28:32;;;;;;;8.90;4.10;;;;;;;;;;5049524;28;20036;-79
2022/11/11 13:31:07;;;;;;;8.73;4.40;;;;;;;;;;5062807;28;20024;-79
2022/11/11 13:33:42;;;;;;;12.48;4.60;;;;;;;;;;5065367;28;20024;-79
2022/11/11 13:36:12;;;;;;;10.85;4.68;;;;;;;;;;5067108;28;20021;-79
2022/11/11 13:38:50;;;;;;;9.65;4.18;;;;;;;;;;5047765;28;20020;-79
2022/11/11 13:41:26;;;;;;;8.23;3.80;;;;;;;;;;5068091;28;20025;-79
2022/11/11 13:43:54;;;;;;;8.10;4.25;;;;;;;;;;5060921;28;20096;-77
2022/11/11 13:46:36;;;;;;;8.82;4.15;;;;;;;;;;5051974;28;20032;-78
2022/11/11 13:49:06;;;;;;;11.95;4.15;;;;;;;;;;5030513;28;20124;-78
2022/11/11 13:51:40;;;;;;;10.05;4.25;;;;;;;;;;5026819;28;20025;-79
2022/11/11 13:54:21;;;;;;;9.85;4.57;;;;;;;;;;5045351;28;20083;-78
2022/11/11 13:56:48;;;;;;;8.73;4.40;;;;;;;;;;5045307;28;20026;-78
2022/11/11 13:59:21;;;;;;;7.70;4.35;;;;;;;;;;5060725;28;20032;-80
2022/11/11 14:02:18;;;;;;;9.37;4.80;;;;;;;;;;5057355;28;20025;-78
2022/11/11 14:05:02;;;;;;;9.32;4.55;;;;;;;;;;5060015;28;20036;-79
2022/11/11 14:07:47;;;;;;;9.83;4.90;;;;;;;;;;5058832;28;20020;-80
2022/11/11 14:10:15;;;;;;;10.25;4.53;;;;;;;;;;5060240;28;20250;-80
2022/11/11 14:12:44;;;;;;;9.88;4.43;;;;;;;;;;5053164;28;20107;-78
2022/11/11 14:15:34;;;;;;;16.08;4.40;;;;;;;;;;5037216;28;20037;-80
2022/11/11 14:18:01;;;;;;;10.88;4.57;;;;;;;;;;5036378;28;20482;-80
2022/11/11 14:20:29;;;;;;;10.45;4.43;;;;;;;;;;5036635;28;20447;-79
2022/11/11 14:23:14;;;;;;;10.40;5.05;;;;;;;;;;5036801;28;20029;-78
2022/11/11 14:25:39;;;;;;;8.63;4.32;;;;;;;;;;5035090;28;20144;-80
2022/11/11 14:28:28;;;;;;;10.93;5.05;;;;;;;;;;5049296;28;20060;-80
2022/11/11 14:30:57;;;;;;;13.55;4.70;;;;;;;;;;5056123;28;20459;-79
2022/11/11 14:33:39;;;;;;;10.95;5.13;;;;;;;;;;5056296;28;20029;-80
2022/11/11 14:36:22;;;;;;;12.70;5.30;;;;;;;;;;5056121;28;20037;-79
2022/11/11 14:38:57;;;;;;;14.70;5.07;;;;;;;;;;5055843;28;20033;-80
2022/11/11 14:41:47;;;;;;;9.70;4.80;;;;;;;;;;5055388;28;20545;-81
2022/11/11 14:44:32;;;;;;;9.65;4.97;;;;;;;;;;5036951;28;20040;-79
2022/11/11 14:47:07;;;;;;;12.82;5.30;;;;;;;;;;5038227;28;20048;-79
2022/11/11 14:49:53;;;;;;;11.82;5.25;;;;;;;;;;5055327;28;20044;-81
2022/11/11 14:52:28;;;;;;;9.88;5.05;;;;;;;;;;5054889;28;20029;-81
2022/11/11 14:55:15;;;;;;;10.88;5.07;;;;;;;;;;5056435;28;20121;-80
2022/11/11 14:57:48;;;;;;;10.50;5.15;;;;;;;;;;5049171;28;20052;-79
2022/11/11 15:00:21;;;;;;;11.10;5.05;;;;;;;;;;5036656;28;20054;-81
2022/11/11 15:02:55;;;;;;;14.25;5.57;;;;;;;;;;5022735;28;20453;-81
2022/11/11 15:05:40;;;;;;;11.10;5.60;;;;;;;;;;5042633;28;20021;-80
2022/11/11 15:08:22;;;;;;;12.52;6.00;;;;;;;;;;5044482;28;20036;-82
2022/11/11 15:11:04;;;;;;;25.25;11.00;;;;;;;;;;5037018;28;20025;-80
2022/11/11 15:14:07;;;;;;;22.63;12.25;;;;;;;;;;5066051;28;20024;-81
2022/11/11 15:16:51;;;;;;;20.35;10.38;;;;;;;;;;5075766;28;20017;-81
2022/11/11 15:19:45;;;;;;;14.80;8.15;;;;;;;;;;5076199;28;20058;-81
2022/11/11 15:22:34;;;;;;;16.25;7.35;;;;;;;;;;5078489;28;20017;-80
2022/11/11 15:25:16;;;;;;;14.18;6.53;;;;;;;;;;5077533;28;20021;-81
2022/11/11 15:27:53;;;;;;;12.90;5.72;;;;;;;;;;5071574;28;20016;-81
2022/11/11 15:30:21;;;;;;;12.15;5.60;;;;;;;;;;5058238;28;20033;-80
2022/11/11 15:33:16;;;;;;;11.35;6.32;;;;;;;;;;5051608;28;20017;-82
2022/11/11 15:35:48;;;;;;;15.75;5.78;;;;;;;;;;5078258;28;20052;-80
2022/11/11 15:38:16;;;;;;;13.10;6.07;;;;;;;;;;5077969;28;20017;-81
2022/11/11 15:40:47;;;;;;;14.52;6.32;;;;;;;;;;5078320;28;20033;-82
2022/11/11 15:43:25;;;;;;;15.52;6.97;;;;;;;;;;5078462;28;20021;-82
2022/11/11 15:46:00;;;;;;;17.23;7.15;;;;;;;;;;5078366;28;20005;-79
2022/11/11 15:48:35;;;;;;;13.45;6.07;;;;;;;;;;5077744;28;20013;-79
2022/11/11 15:51:20;;;;;;;22.75;7.95;;;;;;;;;;5066063;28;20025;-81
2022/11/11 15:53:46;;;;;;;19.58;9.18;;;;;;;;;;5062803;28;20033;-80
2022/11/11 15:56:27;;;;;;;19.55;8.77;;;;;;;;;;5060558;28;20474;-80
2022/11/11 15:58:52;;;;;;;21.17;12.73;;;;;;;;;;5058108;28;20040;-80
2022/11/11 16:01:26;;;;;;;19.85;9.55;;;;;;;;;;5054525;28;20057;-80
2022/11/11 16:03:52;;;;;;;15.45;8.32;;;;;;;;;;5036789;28;20033;-81
2022/11/11 16:06:18;;;;;;;14.90;6.97;;;;;;;;;;5037469;28;20038;-79
2022/11/11 16:08:45;;;;;;;14.98;7.80;;;;;;;;;;5038118;28;20033;-79
2022/11/11 16:11:13;;;;;;;18.48;7.88;;;;;;;;;;5038624;28;20032;-80
2022/11/11 16:13:40;;;;;;;15.93;7.63;;;;;;;;;;5021113;28;20040;-82
2022/11/11 16:16:14;;;;;;;16.92;7.65;;;;;;;;;;5039002;28;20102;-81